sensor_id;sensor_type;location;lat;lon;timestamp;P1;durP1;ratioP1;P2;durP2;ratioP2
15938;SDS011;8068;51.322;9.450;2022-11-25T00:03:31;10.87;;;5.80;;
15938;SDS011;8068;51.322;9.450;2022-11-25T00:06:05;11.77;;;5.90;;
15938;SDS011;8068;51.322;9.450;2022-11-25T00:08:43;7.73;;;4.90;;
15938;SDS011;8068;51.322;9.450;2022-11-25T00:11:10;15.40;;;6.07;;
15938;SDS011;8068;51.322;9.450;2022-11-25T00:13:37;6.90;;;4.90;;
15938;SDS011;8068;51.322;9.450;2022-11-25T00:16:05;12.27;;;5.80;;
15938;SDS011;8068;51.322;9.450;2022-11-25T00:18:32;5.83;;;4.77;;
15938;SDS011;8068;51.322;9.450;2022-11-25T00:21:03;8.10;;;5.10;;
15938;SDS011;8068;51.322;9.450;2022-11-25T00:23:30;14.63;;;4.90;;
15938;SDS011;8068;51.322;9.450;2022-11-25T00:26:05;8.20;;;5.13;;
15938;SDS011;8068;51.322;9.450;2022-11-25T00:28:35;8.63;;;5.10;;
15938;SDS011;8068;51.322;9.450;2022-11-25T00:31:07;9.50;;;5.77;;
15938;SDS011;8068;51.322;9.450;2022-11-25T00:33:35;12.57;;;4.90;;
15938;SDS011;8068;51.322;9.450;2022-11-25T00:36:05;14.57;;;5.53;;
15938;SDS011;8068;51.322;9.450;2022-11-25T00:38:35;11.40;;;5.10;;
15938;SDS011;8068;51.322;9.450;2022-11-25T00:41:01;7.40;;;5.80;;
15938;SDS011;8068;51.322;9.450;2022-11-25T00:43:46;13.77;;;5.63;;
15938;SDS011;8068;51.322;9.450;2022-11-25T00:46:30;16.73;;;5.37;;
15938;SDS011;8068;51.322;9.450;2022-11-25T00:48:56;7.20;;;3.97;;
15938;SDS011;8068;51.322;9.450;2022-11-25T00:51:22;10.60;;;4.40;;
15938;SDS011;8068;51.322;9.450;2022-11-25T00:53:48;10.03;;;4.37;;
15938;SDS011;8068;51.322;9.450;2022-11-25T00:56:14;11.03;;;3.77;;
15938;SDS011;8068;51.322;9.450;2022-11-25T00:58:44;13.10;;;3.47;;
15938;SDS011;8068;51.322;9.450;2022-11-25T01:01:10;6.77;;;3.53;;
15938;SDS011;8068;51.322;9.450;2022-11-25T01:03:37;13.63;;;3.40;;
15938;SDS011;8068;51.322;9.450;2022-11-25T01:06:04;6.20;;;3.30;;
15938;SDS011;8068;51.322;9.450;2022-11-25T01:08:32;10.27;;;3.10;;
15938;SDS011;8068;51.322;9.450;2022-11-25T01:10:59;10.30;;;3.07;;
15938;SDS011;8068;51.322;9.450;2022-11-25T01:13:26;8.53;;;3.30;;
15938;SDS011;8068;51.322;9.450;2022-11-25T01:15:52;6.87;;;3.30;;
15938;SDS011;8068;51.322;9.450;2022-11-25T01:18:18;7.30;;;3.10;;
15938;SDS011;8068;51.322;9.450;2022-11-25T01:20:45;9.03;;;3.03;;
15938;SDS011;8068;51.322;9.450;2022-11-25T01:23:11;11.07;;;3.50;;
15938;SDS011;8068;51.322;9.450;2022-11-25T01:25:37;6.60;;;3.00;;
15938;SDS011;8068;51.322;9.450;2022-11-25T01:28:04;3.73;;;2.60;;
15938;SDS011;8068;51.322;9.450;2022-11-25T01:30:30;6.70;;;3.00;;
15938;SDS011;8068;51.322;9.450;2022-11-25T01:32:56;8.87;;;2.90;;
15938;SDS011;8068;51.322;9.450;2022-11-25T01:35:23;13.03;;;2.77;;
15938;SDS011;8068;51.322;9.450;2022-11-25T01:37:49;16.80;;;3.90;;
15938;SDS011;8068;51.322;9.450;2022-11-25T01:40:15;18.27;;;3.40;;
15938;SDS011;8068;51.322;9.450;2022-11-25T01:42:45;7.30;;;2.97;;
15938;SDS011;8068;51.322;9.450;2022-11-25T01:47:55;12.03;;;3.30;;
15938;SDS011;8068;51.322;9.450;2022-11-25T01:50:23;10.40;;;3.43;;
15938;SDS011;8068;51.322;9.450;2022-11-25T01:52:52;10.10;;;3.50;;
15938;SDS011;8068;51.322;9.450;2022-11-25T01:55:20;10.83;;;2.80;;
15938;SDS011;8068;51.322;9.450;2022-11-25T01:57:55;10.20;;;3.27;;
15938;SDS011;8068;51.322;9.450;2022-11-25T02:00:28;12.23;;;4.50;;
15938;SDS011;8068;51.322;9.450;2022-11-25T02:02:54;8.00;;;4.00;;
15938;SDS011;8068;51.322;9.450;2022-11-25T02:05:22;8.80;;;3.57;;
15938;SDS011;8068;51.322;9.450;2022-11-25T02:07:59;10.83;;;4.10;;
15938;SDS011;8068;51.322;9.450;2022-11-25T02:10:26;11.37;;;4.30;;
15938;SDS011;8068;51.322;9.450;2022-11-25T02:12:54;11.53;;;3.80;;
15938;SDS011;8068;51.322;9.450;2022-11-25T02:15:20;8.00;;;4.30;;
15938;SDS011;8068;51.322;9.450;2022-11-25T02:17:47;15.20;;;4.23;;
15938;SDS011;8068;51.322;9.450;2022-11-25T02:20:18;16.57;;;5.43;;
15938;SDS011;8068;51.322;9.450;2022-11-25T02:25:30;9.57;;;4.67;;
15938;SDS011;8068;51.322;9.450;2022-11-25T02:28:06;8.90;;;4.03;;
15938;SDS011;8068;51.322;9.450;2022-11-25T02:30:35;8.17;;;3.77;;
15938;SDS011;8068;51.322;9.450;2022-11-25T02:33:01;15.37;;;4.00;;
15938;SDS011;8068;51.322;9.450;2022-11-25T02:35:38;16.37;;;4.10;;
15938;SDS011;8068;51.322;9.450;2022-11-25T02:38:08;12.67;;;4.63;;
15938;SDS011;8068;51.322;9.450;2022-11-25T02:40:36;5.90;;;4.13;;
15938;SDS011;8068;51.322;9.450;2022-11-25T02:43:11;12.27;;;4.80;;
15938;SDS011;8068;51.322;9.450;2022-11-25T02:45:47;11.60;;;4.20;;
15938;SDS011;8068;51.322;9.450;2022-11-25T02:48:16;12.47;;;4.00;;
15938;SDS011;8068;51.322;9.450;2022-11-25T02:50:43;9.30;;;3.90;;
15938;SDS011;8068;51.322;9.450;2022-11-25T02:53:09;9.47;;;4.17;;
15938;SDS011;8068;51.322;9.450;2022-11-25T02:55:35;6.60;;;3.53;;
15938;SDS011;8068;51.322;9.450;2022-11-25T02:58:01;14.23;;;3.90;;
15938;SDS011;8068;51.322;9.450;2022-11-25T03:00:27;12.87;;;4.23;;
15938;SDS011;8068;51.322;9.450;2022-11-25T03:02:54;7.50;;;3.40;;
15938;SDS011;8068;51.322;9.450;2022-11-25T03:05:21;16.10;;;3.30;;
15938;SDS011;8068;51.322;9.450;2022-11-25T03:07:47;13.17;;;3.90;;
15938;SDS011;8068;51.322;9.450;2022-11-25T03:10:13;14.07;;;4.10;;
15938;SDS011;8068;51.322;9.450;2022-11-25T03:12:40;13.50;;;3.50;;
15938;SDS011;8068;51.322;9.450;2022-11-25T03:15:06;7.43;;;3.13;;
15938;SDS011;8068;51.322;9.450;2022-11-25T03:17:32;11.60;;;3.90;;
15938;SDS011;8068;51.322;9.450;2022-11-25T03:19:58;9.87;;;3.73;;
15938;SDS011;8068;51.322;9.450;2022-11-25T03:22:25;8.50;;;3.50;;
15938;SDS011;8068;51.322;9.450;2022-11-25T03:24:51;11.60;;;4.10;;
15938;SDS011;8068;51.322;9.450;2022-11-25T03:27:17;7.07;;;3.20;;
15938;SDS011;8068;51.322;9.450;2022-11-25T03:29:43;15.70;;;3.33;;
15938;SDS011;8068;51.322;9.450;2022-11-25T03:32:09;10.23;;;3.57;;
15938;SDS011;8068;51.322;9.450;2022-11-25T03:34:35;8.67;;;3.13;;
15938;SDS011;8068;51.322;9.450;2022-11-25T03:37:02;12.67;;;3.50;;
15938;SDS011;8068;51.322;9.450;2022-11-25T03:39:28;7.20;;;3.43;;
15938;SDS011;8068;51.322;9.450;2022-11-25T03:41:54;13.03;;;3.10;;
15938;SDS011;8068;51.322;9.450;2022-11-25T03:44:20;8.30;;;3.20;;
15938;SDS011;8068;51.322;9.450;2022-11-25T03:46:46;11.87;;;3.57;;
15938;SDS011;8068;51.322;9.450;2022-11-25T03:49:12;9.93;;;3.10;;
15938;SDS011;8068;51.322;9.450;2022-11-25T03:51:38;8.90;;;2.90;;
15938;SDS011;8068;51.322;9.450;2022-11-25T03:54:04;9.03;;;2.70;;
15938;SDS011;8068;51.322;9.450;2022-11-25T03:56:30;9.30;;;2.87;;
15938;SDS011;8068;51.322;9.450;2022-11-25T03:58:56;9.33;;;3.10;;
15938;SDS011;8068;51.322;9.450;2022-11-25T04:01:22;12.57;;;3.10;;
15938;SDS011;8068;51.322;9.450;2022-11-25T04:03:48;8.30;;;2.57;;
15938;SDS011;8068;51.322;9.450;2022-11-25T04:06:15;11.03;;;2.70;;
15938;SDS011;8068;51.322;9.450;2022-11-25T04:08:43;9.67;;;2.20;;
15938;SDS011;8068;51.322;9.450;2022-11-25T04:11:09;7.00;;;2.80;;
15938;SDS011;8068;51.322;9.450;2022-11-25T04:13:35;5.20;;;2.60;;
15938;SDS011;8068;51.322;9.450;2022-11-25T04:16:01;8.83;;;2.70;;
15938;SDS011;8068;51.322;9.450;2022-11-25T04:18:28;11.33;;;2.93;;
15938;SDS011;8068;51.322;9.450;2022-11-25T04:20:54;4.80;;;2.43;;
15938;SDS011;8068;51.322;9.450;2022-11-25T04:23:20;5.87;;;3.20;;
15938;SDS011;8068;51.322;9.450;2022-11-25T04:25:48;8.07;;;3.00;;
15938;SDS011;8068;51.322;9.450;2022-11-25T04:28:14;4.30;;;2.43;;
15938;SDS011;8068;51.322;9.450;2022-11-25T04:30:41;8.77;;;2.90;;
15938;SDS011;8068;51.322;9.450;2022-11-25T04:33:07;10.17;;;2.80;;
15938;SDS011;8068;51.322;9.450;2022-11-25T04:35:33;6.77;;;2.50;;
15938;SDS011;8068;51.322;9.450;2022-11-25T04:37:59;8.30;;;2.80;;
15938;SDS011;8068;51.322;9.450;2022-11-25T04:40:25;10.23;;;2.73;;
15938;SDS011;8068;51.322;9.450;2022-11-25T04:42:51;8.53;;;2.87;;
15938;SDS011;8068;51.322;9.450;2022-11-25T04:45:27;7.87;;;3.00;;
15938;SDS011;8068;51.322;9.450;2022-11-25T04:48:10;8.50;;;3.10;;
15938;SDS011;8068;51.322;9.450;2022-11-25T04:50:36;11.03;;;3.50;;
15938;SDS011;8068;51.322;9.450;2022-11-25T04:53:03;7.17;;;3.20;;
15938;SDS011;8068;51.322;9.450;2022-11-25T04:55:29;9.43;;;3.07;;
15938;SDS011;8068;51.322;9.450;2022-11-25T04:57:55;11.30;;;3.90;;
15938;SDS011;8068;51.322;9.450;2022-11-25T05:00:21;7.90;;;3.40;;
15938;SDS011;8068;51.322;9.450;2022-11-25T05:02:47;11.10;;;3.03;;
15938;SDS011;8068;51.322;9.450;2022-11-25T05:05:14;4.43;;;3.30;;
15938;SDS011;8068;51.322;9.450;2022-11-25T05:07:40;14.83;;;4.67;;
15938;SDS011;8068;51.322;9.450;2022-11-25T05:10:06;13.80;;;3.33;;
15938;SDS011;8068;51.322;9.450;2022-11-25T05:12:33;7.77;;;3.47;;
15938;SDS011;8068;51.322;9.450;2022-11-25T05:15:00;11.77;;;3.40;;
15938;SDS011;8068;51.322;9.450;2022-11-25T05:17:27;9.73;;;3.70;;
15938;SDS011;8068;51.322;9.450;2022-11-25T05:19:54;19.00;;;9.20;;
15938;SDS011;8068;51.322;9.450;2022-11-25T05:22:22;12.70;;;4.37;;
15938;SDS011;8068;51.322;9.450;2022-11-25T05:24:49;7.37;;;4.00;;
15938;SDS011;8068;51.322;9.450;2022-11-25T05:27:15;8.33;;;3.70;;
15938;SDS011;8068;51.322;9.450;2022-11-25T05:29:42;7.23;;;4.10;;
15938;SDS011;8068;51.322;9.450;2022-11-25T05:32:09;11.40;;;3.27;;
15938;SDS011;8068;51.322;9.450;2022-11-25T05:34:35;14.13;;;3.60;;
15938;SDS011;8068;51.322;9.450;2022-11-25T05:37:02;8.53;;;3.70;;
15938;SDS011;8068;51.322;9.450;2022-11-25T05:39:29;7.10;;;4.00;;
15938;SDS011;8068;51.322;9.450;2022-11-25T05:41:55;6.23;;;2.93;;
15938;SDS011;8068;51.322;9.450;2022-11-25T05:44:21;6.10;;;3.37;;
15938;SDS011;8068;51.322;9.450;2022-11-25T05:46:48;7.10;;;3.87;;
15938;SDS011;8068;51.322;9.450;2022-11-25T05:49:15;9.37;;;4.57;;
15938;SDS011;8068;51.322;9.450;2022-11-25T05:51:41;6.70;;;3.03;;
15938;SDS011;8068;51.322;9.450;2022-11-25T05:54:07;7.90;;;3.30;;
15938;SDS011;8068;51.322;9.450;2022-11-25T05:56:33;4.23;;;2.40;;
15938;SDS011;8068;51.322;9.450;2022-11-25T05:59:00;6.97;;;3.27;;
15938;SDS011;8068;51.322;9.450;2022-11-25T06:01:27;7.63;;;2.87;;
15938;SDS011;8068;51.322;9.450;2022-11-25T06:03:53;5.37;;;3.10;;
15938;SDS011;8068;51.322;9.450;2022-11-25T06:06:19;6.57;;;2.87;;
15938;SDS011;8068;51.322;9.450;2022-11-25T06:08:45;5.40;;;2.80;;
15938;SDS011;8068;51.322;9.450;2022-11-25T06:11:12;7.80;;;3.20;;
15938;SDS011;8068;51.322;9.450;2022-11-25T06:13:40;6.53;;;2.60;;
15938;SDS011;8068;51.322;9.450;2022-11-25T06:16:10;4.10;;;2.90;;
15938;SDS011;8068;51.322;9.450;2022-11-25T06:18:39;4.50;;;2.70;;
15938;SDS011;8068;51.322;9.450;2022-11-25T06:21:06;5.73;;;2.73;;
15938;SDS011;8068;51.322;9.450;2022-11-25T06:23:32;7.07;;;3.37;;
15938;SDS011;8068;51.322;9.450;2022-11-25T06:28:41;6.77;;;2.90;;
15938;SDS011;8068;51.322;9.450;2022-11-25T06:31:12;5.00;;;2.50;;
15938;SDS011;8068;51.322;9.450;2022-11-25T06:33:40;12.70;;;3.20;;
15938;SDS011;8068;51.322;9.450;2022-11-25T06:36:07;12.63;;;3.20;;
15938;SDS011;8068;51.322;9.450;2022-11-25T06:38:38;5.37;;;2.77;;
15938;SDS011;8068;51.322;9.450;2022-11-25T06:41:04;9.30;;;2.73;;
15938;SDS011;8068;51.322;9.450;2022-11-25T06:43:31;7.20;;;3.43;;
15938;SDS011;8068;51.322;9.450;2022-11-25T06:46:01;5.83;;;2.60;;
15938;SDS011;8068;51.322;9.450;2022-11-25T06:48:28;9.20;;;3.60;;
15938;SDS011;8068;51.322;9.450;2022-11-25T06:50:55;9.90;;;2.90;;
15938;SDS011;8068;51.322;9.450;2022-11-25T06:53:25;10.00;;;3.10;;
15938;SDS011;8068;51.322;9.450;2022-11-25T06:58:28;8.50;;;2.83;;
15938;SDS011;8068;51.322;9.450;2022-11-25T07:01:02;24.30;;;3.20;;
15938;SDS011;8068;51.322;9.450;2022-11-25T07:03:30;5.10;;;2.67;;
15938;SDS011;8068;51.322;9.450;2022-11-25T07:05:56;12.43;;;3.50;;
15938;SDS011;8068;51.322;9.450;2022-11-25T07:08:23;6.50;;;2.90;;
15938;SDS011;8068;51.322;9.450;2022-11-25T07:11:06;11.80;;;2.60;;
15938;SDS011;8068;51.322;9.450;2022-11-25T07:13:34;10.83;;;3.30;;
15938;SDS011;8068;51.322;9.450;2022-11-25T07:16:01;15.73;;;2.90;;
15938;SDS011;8068;51.322;9.450;2022-11-25T07:18:31;10.83;;;3.23;;
15938;SDS011;8068;51.322;9.450;2022-11-25T07:21:09;5.43;;;2.43;;
15938;SDS011;8068;51.322;9.450;2022-11-25T07:23:36;4.80;;;2.50;;
15938;SDS011;8068;51.322;9.450;2022-11-25T07:26:04;9.20;;;3.63;;
15938;SDS011;8068;51.322;9.450;2022-11-25T07:28:35;5.80;;;3.03;;
15938;SDS011;8068;51.322;9.450;2022-11-25T07:31:09;8.57;;;3.07;;
15938;SDS011;8068;51.322;9.450;2022-11-25T07:33:59;5.83;;;2.70;;
15938;SDS011;8068;51.322;9.450;2022-11-25T07:36:29;7.17;;;2.73;;
15938;SDS011;8068;51.322;9.450;2022-11-25T07:38:57;8.77;;;2.87;;
15938;SDS011;8068;51.322;9.450;2022-11-25T07:41:24;3.83;;;2.10;;
15938;SDS011;8068;51.322;9.450;2022-11-25T07:43:55;10.57;;;3.60;;
15938;SDS011;8068;51.322;9.450;2022-11-25T07:46:24;5.80;;;2.70;;
15938;SDS011;8068;51.322;9.450;2022-11-25T07:48:54;3.63;;;2.30;;
15938;SDS011;8068;51.322;9.450;2022-11-25T07:51:23;5.30;;;2.40;;
15938;SDS011;8068;51.322;9.450;2022-11-25T07:53:51;4.70;;;2.40;;
15938;SDS011;8068;51.322;9.450;2022-11-25T07:56:18;6.57;;;2.67;;
15938;SDS011;8068;51.322;9.450;2022-11-25T07:58:46;6.03;;;2.80;;
15938;SDS011;8068;51.322;9.450;2022-11-25T08:01:13;11.60;;;3.30;;
15938;SDS011;8068;51.322;9.450;2022-11-25T08:03:40;12.27;;;2.30;;
15938;SDS011;8068;51.322;9.450;2022-11-25T08:06:11;10.10;;;2.30;;
15938;SDS011;8068;51.322;9.450;2022-11-25T08:08:39;10.50;;;2.27;;
15938;SDS011;8068;51.322;9.450;2022-11-25T08:11:09;7.20;;;2.80;;
15938;SDS011;8068;51.322;9.450;2022-11-25T08:13:37;8.20;;;2.77;;
15938;SDS011;8068;51.322;9.450;2022-11-25T08:16:03;10.87;;;2.67;;
15938;SDS011;8068;51.322;9.450;2022-11-25T08:18:30;7.90;;;2.50;;
15938;SDS011;8068;51.322;9.450;2022-11-25T08:21:03;6.23;;;2.83;;
15938;SDS011;8068;51.322;9.450;2022-11-25T08:23:31;8.67;;;2.90;;
15938;SDS011;8068;51.322;9.450;2022-11-25T08:26:02;8.93;;;2.37;;
15938;SDS011;8068;51.322;9.450;2022-11-25T08:28:29;4.13;;;2.47;;
15938;SDS011;8068;51.322;9.450;2022-11-25T08:31:05;9.17;;;2.53;;
15938;SDS011;8068;51.322;9.450;2022-11-25T08:33:33;10.20;;;2.27;;
15938;SDS011;8068;51.322;9.450;2022-11-25T08:35:59;7.77;;;2.80;;
15938;SDS011;8068;51.322;9.450;2022-11-25T08:38:26;7.83;;;2.60;;
15938;SDS011;8068;51.322;9.450;2022-11-25T08:40:53;7.93;;;2.63;;
15938;SDS011;8068;51.322;9.450;2022-11-25T08:43:20;4.40;;;2.60;;
15938;SDS011;8068;51.322;9.450;2022-11-25T08:45:53;8.97;;;2.67;;
15938;SDS011;8068;51.322;9.450;2022-11-25T08:48:20;5.47;;;3.03;;
15938;SDS011;8068;51.322;9.450;2022-11-25T08:50:48;7.00;;;2.90;;
15938;SDS011;8068;51.322;9.450;2022-11-25T08:53:20;3.13;;;2.70;;
15938;SDS011;8068;51.322;9.450;2022-11-25T08:55:46;11.10;;;2.90;;
15938;SDS011;8068;51.322;9.450;2022-11-25T08:58:13;17.83;;;4.00;;
15938;SDS011;8068;51.322;9.450;2022-11-25T09:00:39;16.30;;;3.43;;
15938;SDS011;8068;51.322;9.450;2022-11-25T09:03:06;6.60;;;2.97;;
15938;SDS011;8068;51.322;9.450;2022-11-25T09:05:32;10.53;;;3.40;;
15938;SDS011;8068;51.322;9.450;2022-11-25T09:08:01;21.17;;;3.30;;
15938;SDS011;8068;51.322;9.450;2022-11-25T09:10:28;11.13;;;3.73;;
15938;SDS011;8068;51.322;9.450;2022-11-25T09:12:55;12.13;;;3.20;;
15938;SDS011;8068;51.322;9.450;2022-11-25T09:15:21;9.90;;;3.13;;
15938;SDS011;8068;51.322;9.450;2022-11-25T09:17:47;6.67;;;3.27;;
15938;SDS011;8068;51.322;9.450;2022-11-25T09:20:13;5.63;;;2.70;;
15938;SDS011;8068;51.322;9.450;2022-11-25T09:22:39;6.83;;;2.77;;
15938;SDS011;8068;51.322;9.450;2022-11-25T09:25:05;11.07;;;3.03;;
15938;SDS011;8068;51.322;9.450;2022-11-25T09:27:31;11.67;;;2.40;;
15938;SDS011;8068;51.322;9.450;2022-11-25T09:29:58;6.67;;;2.67;;
15938;SDS011;8068;51.322;9.450;2022-11-25T09:32:24;9.57;;;2.87;;
15938;SDS011;8068;51.322;9.450;2022-11-25T09:34:50;9.50;;;3.30;;
15938;SDS011;8068;51.322;9.450;2022-11-25T09:37:16;4.97;;;2.87;;
15938;SDS011;8068;51.322;9.450;2022-11-25T09:39:42;5.47;;;2.60;;
15938;SDS011;8068;51.322;9.450;2022-11-25T09:43:10;5.10;;;2.40;;
15938;SDS011;8068;51.322;9.450;2022-11-25T09:45:46;6.50;;;2.47;;
15938;SDS011;8068;51.322;9.450;2022-11-25T09:51:11;7.30;;;2.67;;
15938;SDS011;8068;51.322;9.450;2022-11-25T09:53:56;8.20;;;2.60;;
15938;SDS011;8068;51.322;9.450;2022-11-25T09:56:27;6.90;;;2.17;;
15938;SDS011;8068;51.322;9.450;2022-11-25T09:59:05;7.10;;;2.90;;
15938;SDS011;8068;51.322;9.450;2022-11-25T10:01:57;6.63;;;2.57;;
15938;SDS011;8068;51.322;9.450;2022-11-25T10:04:34;4.97;;;2.57;;
15938;SDS011;8068;51.322;9.450;2022-11-25T10:07:03;6.73;;;3.20;;
15938;SDS011;8068;51.322;9.450;2022-11-25T10:09:35;5.03;;;3.00;;
15938;SDS011;8068;51.322;9.450;2022-11-25T10:12:04;10.47;;;5.50;;
15938;SDS011;8068;51.322;9.450;2022-11-25T10:14:52;12.53;;;6.47;;
15938;SDS011;8068;51.322;9.450;2022-11-25T10:17:30;7.00;;;5.00;;
15938;SDS011;8068;51.322;9.450;2022-11-25T10:20:03;10.60;;;4.70;;
15938;SDS011;8068;51.322;9.450;2022-11-25T10:22:36;7.17;;;4.43;;
15938;SDS011;8068;51.322;9.450;2022-11-25T10:25:16;12.93;;;5.17;;
15938;SDS011;8068;51.322;9.450;2022-11-25T10:28:00;7.17;;;4.20;;
15938;SDS011;8068;51.322;9.450;2022-11-25T10:30:36;6.20;;;3.27;;
15938;SDS011;8068;51.322;9.450;2022-11-25T10:35:56;7.37;;;2.80;;
15938;SDS011;8068;51.322;9.450;2022-11-25T10:38:36;6.03;;;2.43;;
15938;SDS011;8068;51.322;9.450;2022-11-25T10:41:06;7.67;;;3.20;;
15938;SDS011;8068;51.322;9.450;2022-11-25T10:43:34;8.97;;;3.37;;
15938;SDS011;8068;51.322;9.450;2022-11-25T10:57:15;12.30;;;3.50;;
15938;SDS011;8068;51.322;9.450;2022-11-25T11:02:05;7.17;;;4.00;;
15938;SDS011;8068;51.322;9.450;2022-11-25T11:07:40;8.60;;;3.73;;
15938;SDS011;8068;51.322;9.450;2022-11-25T11:10:16;6.37;;;5.60;;
15938;SDS011;8068;51.322;9.450;2022-11-25T11:13:03;10.47;;;4.53;;
15938;SDS011;8068;51.322;9.450;2022-11-25T11:15:45;7.27;;;4.00;;
15938;SDS011;8068;51.322;9.450;2022-11-25T11:18:17;7.50;;;3.20;;
15938;SDS011;8068;51.322;9.450;2022-11-25T11:20:47;7.50;;;4.03;;
15938;SDS011;8068;51.322;9.450;2022-11-25T11:23:15;8.63;;;4.10;;
15938;SDS011;8068;51.322;9.450;2022-11-25T11:30:53;6.13;;;3.97;;
15938;SDS011;8068;51.322;9.450;2022-11-25T11:33:42;11.37;;;4.87;;
15938;SDS011;8068;51.322;9.450;2022-11-25T11:46:42;11.23;;;4.70;;
15938;SDS011;8068;51.322;9.450;2022-11-25T11:54:51;8.43;;;5.77;;
15938;SDS011;8068;51.322;9.450;2022-11-25T12:00:12;13.73;;;6.43;;
15938;SDS011;8068;51.322;9.450;2022-11-25T12:05:39;14.67;;;11.80;;
15938;SDS011;8068;51.322;9.450;2022-11-25T12:08:10;11.80;;;6.17;;
15938;SDS011;8068;51.322;9.450;2022-11-25T12:10:43;6.63;;;5.00;;
15938;SDS011;8068;51.322;9.450;2022-11-25T12:13:14;10.27;;;5.77;;
15938;SDS011;8068;51.322;9.450;2022-11-25T12:15:54;10.10;;;5.60;;
15938;SDS011;8068;51.322;9.450;2022-11-25T12:18:27;8.73;;;5.67;;
15938;SDS011;8068;51.322;9.450;2022-11-25T12:21:04;16.70;;;5.33;;
15938;SDS011;8068;51.322;9.450;2022-11-25T12:26:04;7.90;;;5.37;;
15938;SDS011;8068;51.322;9.450;2022-11-25T12:28:42;15.13;;;5.43;;
15938;SDS011;8068;51.322;9.450;2022-11-25T12:31:17;5.37;;;4.60;;
15938;SDS011;8068;51.322;9.450;2022-11-25T12:33:59;4.37;;;3.97;;
15938;SDS011;8068;51.322;9.450;2022-11-25T12:36:33;11.80;;;5.20;;
15938;SDS011;8068;51.322;9.450;2022-11-25T12:39:05;9.30;;;4.97;;
15938;SDS011;8068;51.322;9.450;2022-11-25T12:41:50;7.17;;;4.70;;
15938;SDS011;8068;51.322;9.450;2022-11-25T12:46:54;13.97;;;5.40;;
15938;SDS011;8068;51.322;9.450;2022-11-25T12:49:25;7.47;;;5.13;;
15938;SDS011;8068;51.322;9.450;2022-11-25T13:02:53;10.47;;;5.20;;
15938;SDS011;8068;51.322;9.450;2022-11-25T13:05:51;8.90;;;5.10;;
15938;SDS011;8068;51.322;9.450;2022-11-25T13:14:11;10.47;;;5.10;;
15938;SDS011;8068;51.322;9.450;2022-11-25T13:16:40;6.20;;;4.23;;
15938;SDS011;8068;51.322;9.450;2022-11-25T13:19:08;9.20;;;5.60;;
15938;SDS011;8068;51.322;9.450;2022-11-25T13:21:53;10.73;;;5.63;;
15938;SDS011;8068;51.322;9.450;2022-11-25T13:24:33;5.23;;;4.40;;
15938;SDS011;8068;51.322;9.450;2022-11-25T13:27:04;9.87;;;5.00;;
15938;SDS011;8068;51.322;9.450;2022-11-25T13:34:27;10.60;;;5.27;;
15938;SDS011;8068;51.322;9.450;2022-11-25T13:36:58;13.23;;;5.63;;
15938;SDS011;8068;51.322;9.450;2022-11-25T13:39:29;12.97;;;5.77;;
15938;SDS011;8068;51.322;9.450;2022-11-25T13:42:00;9.33;;;5.90;;
15938;SDS011;8068;51.322;9.450;2022-11-25T13:44:48;7.80;;;5.67;;
15938;SDS011;8068;51.322;9.450;2022-11-25T13:47:23;8.23;;;5.10;;
15938;SDS011;8068;51.322;9.450;2022-11-25T13:49:53;9.83;;;6.03;;
15938;SDS011;8068;51.322;9.450;2022-11-25T13:52:26;10.93;;;6.07;;
15938;SDS011;8068;51.322;9.450;2022-11-25T13:54:56;10.23;;;6.00;;
15938;SDS011;8068;51.322;9.450;2022-11-25T13:57:25;13.70;;;5.23;;
15938;SDS011;8068;51.322;9.450;2022-11-25T13:59:54;5.63;;;5.13;;
15938;SDS011;8068;51.322;9.450;2022-11-25T14:02:27;11.83;;;5.77;;
15938;SDS011;8068;51.322;9.450;2022-11-25T14:10:41;7.80;;;5.67;;
15938;SDS011;8068;51.322;9.450;2022-11-25T14:27:18;10.53;;;5.57;;
15938;SDS011;8068;51.322;9.450;2022-11-25T14:32:21;10.50;;;7.07;;
15938;SDS011;8068;51.322;9.450;2022-11-25T14:35:04;13.87;;;6.70;;
15938;SDS011;8068;51.322;9.450;2022-11-25T14:40:10;13.90;;;6.70;;
15938;SDS011;8068;51.322;9.450;2022-11-25T14:42:39;9.33;;;6.70;;
15938;SDS011;8068;51.322;9.450;2022-11-25T14:45:18;9.53;;;6.80;;
15938;SDS011;8068;51.322;9.450;2022-11-25T14:47:46;9.70;;;6.23;;
15938;SDS011;8068;51.322;9.450;2022-11-25T14:50:13;9.47;;;6.80;;
15938;SDS011;8068;51.322;9.450;2022-11-25T14:52:59;11.53;;;7.07;;
15938;SDS011;8068;51.322;9.450;2022-11-25T14:55:30;10.90;;;7.20;;
15938;SDS011;8068;51.322;9.450;2022-11-25T14:57:56;12.40;;;8.20;;
15938;SDS011;8068;51.322;9.450;2022-11-25T15:00:23;9.90;;;7.80;;
15938;SDS011;8068;51.322;9.450;2022-11-25T15:02:53;15.73;;;7.83;;
15938;SDS011;8068;51.322;9.450;2022-11-25T15:05:25;9.90;;;7.30;;
15938;SDS011;8068;51.322;9.450;2022-11-25T15:08:15;9.97;;;7.17;;
15938;SDS011;8068;51.322;9.450;2022-11-25T15:13:36;8.83;;;7.70;;
15938;SDS011;8068;51.322;9.450;2022-11-25T15:19:17;11.43;;;7.27;;
15938;SDS011;8068;51.322;9.450;2022-11-25T15:21:45;10.30;;;6.60;;
15938;SDS011;8068;51.322;9.450;2022-11-25T15:24:41;12.00;;;7.23;;
15938;SDS011;8068;51.322;9.450;2022-11-25T15:27:14;7.83;;;7.07;;
15938;SDS011;8068;51.322;9.450;2022-11-25T15:29:42;11.17;;;7.10;;
15938;SDS011;8068;51.322;9.450;2022-11-25T15:32:13;14.10;;;7.00;;
15938;SDS011;8068;51.322;9.450;2022-11-25T15:34:41;8.00;;;7.20;;
15938;SDS011;8068;51.322;9.450;2022-11-25T15:37:11;7.70;;;7.10;;
15938;SDS011;8068;51.322;9.450;2022-11-25T15:39:37;13.40;;;7.90;;
15938;SDS011;8068;51.322;9.450;2022-11-25T15:42:05;9.13;;;7.83;;
15938;SDS011;8068;51.322;9.450;2022-11-25T15:44:35;7.80;;;7.10;;
15938;SDS011;8068;51.322;9.450;2022-11-25T15:47:14;11.50;;;8.93;;
15938;SDS011;8068;51.322;9.450;2022-11-25T15:49:59;14.40;;;11.30;;
15938;SDS011;8068;51.322;9.450;2022-11-25T15:52:30;32.10;;;16.60;;
15938;SDS011;8068;51.322;9.450;2022-11-25T15:55:00;17.00;;;11.10;;
15938;SDS011;8068;51.322;9.450;2022-11-25T15:57:35;21.93;;;13.80;;
15938;SDS011;8068;51.322;9.450;2022-11-25T16:10:17;28.27;;;10.10;;
15938;SDS011;8068;51.322;9.450;2022-11-25T16:18:28;19.13;;;11.20;;
15938;SDS011;8068;51.322;9.450;2022-11-25T16:21:19;13.50;;;9.30;;
15938;SDS011;8068;51.322;9.450;2022-11-25T16:26:35;11.60;;;9.90;;
15938;SDS011;8068;51.322;9.450;2022-11-25T16:29:09;15.77;;;9.87;;
15938;SDS011;8068;51.322;9.450;2022-11-25T16:31:39;12.13;;;8.13;;
15938;SDS011;8068;51.322;9.450;2022-11-25T16:34:13;20.23;;;10.23;;
15938;SDS011;8068;51.322;9.450;2022-11-25T16:36:40;21.33;;;10.77;;
15938;SDS011;8068;51.322;9.450;2022-11-25T16:39:07;13.23;;;9.53;;
15938;SDS011;8068;51.322;9.450;2022-11-25T16:41:33;15.23;;;8.63;;
15938;SDS011;8068;51.322;9.450;2022-11-25T16:44:00;16.23;;;8.47;;
15938;SDS011;8068;51.322;9.450;2022-11-25T16:46:33;13.73;;;8.50;;
15938;SDS011;8068;51.322;9.450;2022-11-25T16:49:00;16.50;;;9.73;;
15938;SDS011;8068;51.322;9.450;2022-11-25T16:51:30;18.83;;;9.37;;
15938;SDS011;8068;51.322;9.450;2022-11-25T16:53:56;9.70;;;8.70;;
15938;SDS011;8068;51.322;9.450;2022-11-25T16:56:26;18.03;;;11.43;;
15938;SDS011;8068;51.322;9.450;2022-11-25T16:58:53;13.13;;;8.50;;
15938;SDS011;8068;51.322;9.450;2022-11-25T17:01:20;18.30;;;9.47;;
15938;SDS011;8068;51.322;9.450;2022-11-25T17:03:48;11.87;;;10.00;;
15938;SDS011;8068;51.322;9.450;2022-11-25T17:06:17;16.60;;;9.70;;
15938;SDS011;8068;51.322;9.450;2022-11-25T17:08:47;10.43;;;9.33;;
15938;SDS011;8068;51.322;9.450;2022-11-25T17:13:49;16.60;;;10.30;;
15938;SDS011;8068;51.322;9.450;2022-11-25T17:16:21;12.97;;;10.23;;
15938;SDS011;8068;51.322;9.450;2022-11-25T17:18:49;26.00;;;13.17;;
15938;SDS011;8068;51.322;9.450;2022-11-25T17:21:17;13.33;;;10.30;;
15938;SDS011;8068;51.322;9.450;2022-11-25T17:23:44;18.73;;;11.20;;
15938;SDS011;8068;51.322;9.450;2022-11-25T17:26:20;17.00;;;10.73;;
15938;SDS011;8068;51.322;9.450;2022-11-25T17:28:53;25.67;;;14.60;;
15938;SDS011;8068;51.322;9.450;2022-11-25T17:31:23;22.13;;;15.33;;
15938;SDS011;8068;51.322;9.450;2022-11-25T17:33:51;16.83;;;12.00;;